Weather at Anna Creek Airport

Public forecast

Using degrees Celsius for public forecast. Weather courtesy of forecast.io.

Closest aviation weather report (METAR) to Anna Creek Airport

Closest report is Coober Pedy Airport, 76.6 nm (141.9 km) W. Retrieved 2021/06/20 08:00 UTC (41 minutes ago):

YCBP 200800Z AUTO 05006KT 9999 // NCD 15/03 Q1022

Closest aviation forecast (TAF) to Anna Creek Airport

Closest forecast is Woomera Airfield, 139.1 nm (257.6 km) SSE. Retrieved 2021/06/20 06:00 UTC (3 hours ago):

TAF YPWR 200459Z 2006/2100 05007KT CAVOK